createdAt,value
2018-12-02T00:00:11.318Z,70.04
2018-12-02T00:02:38.731Z,69.89
2018-12-02T00:05:06.182Z,69.48
2018-12-02T00:07:33.580Z,69.31
2018-12-02T00:10:01.036Z,69.66
2018-12-02T00:12:28.441Z,69.82
2018-12-02T00:14:55.849Z,69.64
2018-12-02T00:17:23.255Z,69.26
2018-12-02T00:19:50.756Z,69.57
2018-12-02T00:22:18.165Z,69.92
2018-12-02T00:24:45.772Z,70.21
2018-12-02T00:27:13.198Z,69.94
2018-12-02T00:29:40.633Z,69.33
2018-12-02T00:32:08.318Z,69.33
2018-12-02T00:34:35.771Z,69.92
2018-12-02T00:37:03.546Z,70.18
2018-12-02T00:39:30.995Z,70.65
2018-12-02T00:41:58.939Z,71.09
2018-12-02T00:44:26.408Z,71.68
2018-12-02T00:46:53.847Z,72.29
2018-12-02T00:49:21.276Z,72.62
2018-12-02T00:51:48.671Z,72.67
2018-12-02T00:54:16.098Z,72.54
2018-12-02T00:56:43.508Z,72.40
2018-12-02T00:59:11.033Z,72.46
2018-12-02T01:01:38.433Z,73.00
2018-12-02T01:04:05.860Z,72.88
2018-12-02T01:06:33.327Z,72.72
2018-12-02T01:09:00.735Z,72.45
2018-12-02T01:11:28.157Z,72.43
2018-12-02T01:13:55.544Z,72.05
2018-12-02T01:16:22.944Z,71.90
2018-12-02T01:18:50.357Z,71.64
2018-12-02T01:21:17.832Z,71.58
2018-12-02T01:23:45.215Z,70.79
2018-12-02T01:26:12.625Z,69.91
2018-12-02T01:28:40.102Z,69.45
2018-12-02T01:31:07.480Z,68.90
2018-12-02T01:33:35.038Z,68.74
2018-12-02T01:36:02.469Z,68.94
2018-12-02T01:38:29.864Z,68.54
2018-12-02T01:40:57.263Z,68.82
2018-12-02T01:43:24.670Z,68.75
2018-12-02T01:45:52.213Z,69.11
2018-12-02T01:48:19.617Z,69.61
2018-12-02T01:50:47.093Z,69.99
2018-12-02T01:53:14.496Z,70.17
2018-12-02T01:55:42.096Z,70.40
2018-12-02T01:58:09.773Z,70.17
2018-12-02T02:00:37.204Z,70.20
2018-12-02T02:03:05.343Z,70.20
2018-12-02T02:05:32.817Z,70.19
2018-12-02T02:08:00.229Z,70.00
2018-12-02T02:10:27.610Z,70.03
2018-12-02T02:12:55.077Z,69.93
2018-12-02T02:15:22.486Z,69.77
2018-12-02T02:17:49.883Z,69.97
2018-12-02T02:20:17.290Z,70.07
2018-12-02T02:22:44.773Z,70.05
2018-12-02T02:25:12.234Z,70.64
2018-12-02T02:27:39.639Z,70.82
2018-12-02T02:30:07.888Z,70.62
2018-12-02T02:32:35.413Z,70.33
2018-12-02T02:35:04.524Z,70.65
2018-12-02T02:37:31.960Z,70.03
2018-12-02T02:39:59.410Z,70.00
2018-12-02T02:42:26.855Z,70.34
2018-12-02T02:44:54.254Z,70.54
2018-12-02T02:47:21.783Z,70.59
2018-12-02T02:49:49.200Z,70.81
2018-12-02T02:52:16.594Z,70.67
2018-12-02T02:54:44.181Z,70.99
2018-12-02T02:57:11.572Z,70.65
2018-12-02T02:59:38.973Z,70.65
2018-12-02T03:02:06.380Z,71.00
2018-12-02T03:04:33.770Z,70.86
2018-12-02T03:07:01.181Z,71.14
2018-12-02T03:09:28.594Z,70.50
2018-12-02T03:11:55.999Z,70.43
2018-12-02T03:14:23.405Z,70.10
2018-12-02T03:16:50.802Z,70.40
2018-12-02T03:19:18.193Z,71.24
2018-12-02T03:21:45.601Z,70.85
2018-12-02T03:24:13.003Z,70.71
2018-12-02T03:26:40.411Z,70.50
2018-12-02T03:29:07.817Z,70.96
2018-12-02T03:31:35.236Z,71.14
2018-12-02T03:34:02.628Z,71.35
2018-12-02T03:36:30.033Z,71.31
2018-12-02T03:38:57.438Z,71.66
2018-12-02T03:41:24.854Z,71.79
2018-12-02T03:43:52.491Z,71.76
2018-12-02T03:46:19.874Z,72.08
2018-12-02T03:48:47.332Z,73.21
2018-12-02T03:51:14.748Z,73.26
2018-12-02T03:53:42.142Z,73.54
2018-12-02T03:56:09.556Z,73.95
2018-12-02T03:58:36.954Z,74.49
2018-12-02T04:01:04.386Z,74.60
2018-12-02T04:03:31.774Z,75.08
2018-12-02T04:05:59.193Z,74.83
2018-12-02T04:08:26.582Z,75.22
2018-12-02T04:10:53.992Z,74.91
2018-12-02T04:13:21.404Z,74.82
2018-12-02T04:15:48.792Z,75.09
2018-12-02T04:18:16.273Z,74.31
2018-12-02T04:20:43.675Z,74.29
2018-12-02T04:23:11.084Z,74.22
2018-12-02T04:25:38.518Z,74.96
2018-12-02T04:28:05.946Z,75.27
2018-12-02T04:30:33.367Z,75.36
2018-12-02T04:33:00.751Z,75.39
2018-12-02T04:35:28.151Z,75.42
2018-12-02T04:37:55.670Z,75.15
2018-12-02T04:40:23.136Z,75.06
2018-12-02T04:42:50.555Z,75.30
2018-12-02T04:45:18.119Z,75.51
2018-12-02T04:47:45.592Z,75.63
2018-12-02T04:50:13.006Z,75.75
2018-12-02T04:52:40.476Z,76.08
2018-12-02T04:55:07.873Z,76.04
2018-12-02T04:57:35.343Z,76.31
2018-12-02T05:00:02.745Z,76.42
2018-12-02T05:02:30.133Z,76.33
2018-12-02T05:04:57.538Z,76.51
2018-12-02T05:07:24.931Z,76.49
2018-12-02T05:09:52.345Z,76.98
2018-12-02T05:12:19.740Z,77.44
2018-12-02T05:14:47.213Z,77.35
2018-12-02T05:17:14.692Z,77.34
2018-12-02T05:19:43.018Z,77.56
2018-12-02T05:22:10.409Z,77.62
2018-12-02T05:24:37.833Z,77.75
2018-12-02T05:27:05.231Z,77.91
2018-12-02T05:29:32.886Z,78.83
2018-12-02T05:32:00.286Z,79.11
2018-12-02T05:34:27.682Z,79.07
2018-12-02T05:36:55.297Z,78.92
2018-12-02T05:39:22.689Z,78.58
2018-12-02T05:41:50.081Z,78.96
2018-12-02T05:44:17.476Z,79.71
2018-12-02T05:46:44.875Z,79.45
2018-12-02T05:49:12.336Z,78.82
2018-12-02T05:51:39.756Z,78.73
2018-12-02T05:54:07.176Z,78.94
2018-12-02T05:56:34.573Z,78.91
2018-12-02T05:59:02.351Z,79.28
2018-12-02T06:01:29.786Z,79.34
2018-12-02T06:03:57.359Z,79.50
2018-12-02T06:06:24.752Z,79.52
2018-12-02T06:08:52.282Z,79.76
2018-12-02T06:11:19.731Z,79.92
2018-12-02T06:13:47.156Z,80.12
2018-12-02T06:16:14.571Z,80.34
2018-12-02T06:18:41.996Z,80.61
2018-12-02T06:21:09.469Z,80.74
2018-12-02T06:23:36.847Z,80.81
2018-12-02T06:26:04.257Z,81.00
2018-12-02T06:28:31.651Z,81.20
2018-12-02T06:30:59.095Z,81.07
2018-12-02T06:33:26.518Z,81.19
2018-12-02T06:35:53.942Z,81.36
2018-12-02T06:38:21.544Z,81.53
2018-12-02T06:40:48.930Z,81.82
2018-12-02T06:43:16.349Z,82.10
2018-12-02T06:45:43.744Z,81.87
2018-12-02T06:48:11.185Z,81.83
2018-12-02T06:50:38.614Z,82.01
2018-12-02T06:53:06.001Z,82.19
2018-12-02T06:55:34.431Z,82.04
2018-12-02T06:58:03.889Z,81.79
2018-12-02T07:00:32.832Z,81.75
2018-12-02T07:03:00.975Z,81.64
2018-12-02T07:05:29.358Z,81.87
2018-12-02T07:07:57.384Z,82.12
2018-12-02T07:10:24.795Z,82.24
2018-12-02T07:12:52.215Z,82.33
2018-12-02T07:15:19.623Z,82.34
2018-12-02T07:17:48.048Z,82.26
2018-12-02T07:20:17.353Z,81.95
2018-12-02T07:22:45.725Z,81.71
2018-12-02T07:25:17.855Z,81.97
2018-12-02T07:27:45.269Z,81.76
2018-12-02T07:30:12.668Z,81.97
2018-12-02T07:32:40.067Z,82.33
2018-12-02T07:35:07.465Z,82.38
2018-12-02T07:37:34.892Z,82.14
2018-12-02T07:40:02.304Z,81.79
2018-12-02T07:42:29.775Z,81.81
2018-12-02T07:44:57.199Z,81.86
2018-12-02T07:47:24.585Z,82.15
2018-12-02T07:49:52.041Z,82.46
2018-12-02T07:52:19.435Z,82.26
2018-12-02T07:54:46.846Z,82.33
2018-12-02T07:57:14.244Z,82.16
2018-12-02T07:59:41.670Z,82.34
2018-12-02T08:02:09.109Z,82.32
2018-12-02T08:04:37.518Z,82.68
2018-12-02T08:07:05.041Z,82.68
2018-12-02T08:09:32.828Z,82.18
2018-12-02T08:12:00.305Z,82.26
2018-12-02T08:14:27.735Z,82.04
2018-12-02T08:16:55.218Z,81.72
2018-12-02T08:19:22.688Z,82.00
2018-12-02T08:21:50.111Z,82.24
2018-12-02T08:24:17.543Z,82.06
2018-12-02T08:26:44.955Z,82.22
2018-12-02T08:29:12.414Z,82.36
2018-12-02T08:31:39.868Z,82.56
2018-12-02T08:34:07.276Z,83.13
2018-12-02T08:36:34.692Z,82.94
2018-12-02T08:39:02.119Z,82.85
2018-12-02T08:41:30.197Z,82.80
2018-12-02T08:43:57.596Z,83.17
2018-12-02T08:46:25.115Z,83.03
2018-12-02T08:48:53.274Z,83.45
2018-12-02T08:51:20.222Z,83.66
2018-12-02T08:53:47.613Z,83.44
2018-12-02T08:56:15.015Z,83.25
2018-12-02T08:58:42.436Z,83.17
2018-12-02T09:01:10.190Z,83.39
2018-12-02T09:03:37.650Z,83.34
2018-12-02T09:06:05.880Z,83.49
2018-12-02T09:08:33.703Z,83.52
2018-12-02T09:11:01.113Z,83.08
2018-12-02T09:13:28.669Z,83.11
2018-12-02T09:15:56.235Z,82.75
2018-12-02T09:18:23.875Z,82.94
2018-12-02T09:20:51.432Z,83.19
2018-12-02T09:23:18.972Z,82.93
2018-12-02T09:25:46.416Z,82.77
2018-12-02T09:28:13.829Z,82.91
2018-12-02T09:30:41.220Z,83.01
2018-12-02T09:33:08.628Z,82.80
2018-12-02T09:35:36.085Z,82.74
2018-12-02T09:38:03.627Z,82.89
2018-12-02T09:40:31.053Z,83.26
2018-12-02T09:42:58.453Z,83.51
2018-12-02T09:45:25.915Z,83.53
2018-12-02T09:47:53.411Z,83.45
2018-12-02T09:50:20.816Z,83.89
2018-12-02T09:52:49.217Z,84.28
2018-12-02T09:55:16.737Z,84.26
2018-12-02T09:57:44.158Z,84.15
2018-12-02T10:00:11.577Z,84.18
2018-12-02T10:02:38.963Z,83.95
2018-12-02T10:05:06.462Z,83.80
2018-12-02T10:07:33.898Z,83.87
2018-12-02T10:10:01.373Z,84.13
2018-12-02T10:12:30.025Z,84.16
2018-12-02T10:14:57.432Z,84.14
2018-12-02T10:17:24.842Z,84.37
2018-12-02T10:19:53.306Z,84.77
2018-12-02T10:22:20.710Z,84.89
2018-12-02T10:24:48.111Z,84.60
2018-12-02T10:27:15.574Z,84.61
2018-12-02T10:29:43.081Z,84.35
2018-12-02T10:32:12.462Z,84.24
2018-12-02T10:34:38.961Z,83.94
2018-12-02T10:37:06.391Z,83.85
2018-12-02T10:39:33.777Z,83.78
2018-12-02T10:42:01.244Z,83.78
2018-12-02T10:44:28.786Z,83.72
2018-12-02T10:46:56.188Z,83.82
2018-12-02T10:49:23.701Z,83.89
2018-12-02T10:51:51.102Z,83.72
2018-12-02T10:54:18.522Z,83.88
2018-12-02T10:56:45.936Z,83.70
2018-12-02T10:59:14.100Z,84.35
2018-12-02T11:01:41.506Z,84.62
2018-12-02T11:04:08.912Z,84.66
2018-12-02T11:06:37.815Z,84.51
2018-12-02T11:09:06.163Z,84.26
2018-12-02T11:11:33.795Z,84.29
2018-12-02T11:14:02.137Z,83.80
2018-12-02T11:16:29.548Z,83.97
2018-12-02T11:18:57.014Z,84.26
2018-12-02T11:21:25.391Z,84.30
2018-12-02T11:23:52.790Z,84.08
2018-12-02T11:26:20.201Z,83.80
2018-12-02T11:28:47.644Z,83.63
2018-12-02T11:31:15.052Z,83.03
2018-12-02T11:33:42.547Z,82.93
2018-12-02T11:36:09.959Z,83.04
2018-12-02T11:38:37.767Z,83.17
2018-12-02T11:41:05.187Z,83.46
2018-12-02T11:43:32.683Z,83.70
2018-12-02T11:46:00.130Z,83.72
2018-12-02T11:48:27.537Z,84.26
2018-12-02T11:50:55.046Z,84.42
2018-12-02T11:53:22.456Z,84.29
2018-12-02T11:55:50.167Z,84.11
2018-12-02T11:58:17.578Z,84.24
2018-12-02T12:00:44.996Z,84.14
2018-12-02T12:03:12.838Z,83.76
2018-12-02T12:05:40.292Z,83.73
2018-12-02T12:08:09.487Z,83.52
2018-12-02T12:10:37.173Z,83.57
2018-12-02T12:13:04.569Z,84.17
2018-12-02T12:15:32.808Z,84.20
2018-12-02T12:18:00.372Z,83.98
2018-12-02T12:20:27.817Z,83.58
2018-12-02T12:22:55.240Z,83.42
2018-12-02T12:25:22.733Z,83.56
2018-12-02T12:27:50.155Z,83.59
2018-12-02T12:30:17.568Z,83.61
2018-12-02T12:32:44.972Z,83.33
2018-12-02T12:35:12.388Z,82.99
2018-12-02T12:37:40.041Z,83.04
2018-12-02T12:40:07.473Z,83.55
2018-12-02T12:42:34.869Z,84.38
2018-12-02T12:45:02.376Z,84.46
2018-12-02T12:47:29.779Z,83.93
2018-12-02T12:49:57.323Z,83.94
2018-12-02T12:52:24.795Z,84.17
2018-12-02T12:54:52.463Z,84.12
2018-12-02T12:57:20.336Z,83.90
2018-12-02T12:59:47.877Z,83.38
2018-12-02T13:02:15.485Z,83.48
2018-12-02T13:04:42.916Z,83.70
2018-12-02T13:07:10.345Z,83.32
2018-12-02T13:09:37.795Z,83.29
2018-12-02T13:12:05.509Z,83.19
2018-12-02T13:14:32.968Z,83.23
2018-12-02T13:17:00.376Z,83.37
2018-12-02T13:19:27.785Z,83.61
2018-12-02T13:21:57.860Z,83.81
2018-12-02T13:24:25.485Z,83.86
2018-12-02T13:26:52.896Z,84.33
2018-12-02T13:29:20.564Z,84.32
2018-12-02T13:31:50.443Z,84.26
2018-12-02T13:34:17.932Z,84.17
2018-12-02T13:36:45.338Z,84.20
2018-12-02T13:39:12.745Z,84.03
2018-12-02T13:41:40.160Z,84.03
2018-12-02T13:44:07.769Z,83.92
2018-12-02T13:46:35.184Z,84.16
2018-12-02T13:49:02.739Z,84.19
2018-12-02T13:51:30.137Z,84.02
2018-12-02T13:53:57.556Z,84.08
2018-12-02T13:56:25.048Z,83.75
2018-12-02T13:58:52.836Z,83.48
2018-12-02T14:01:20.244Z,83.62
2018-12-02T14:03:47.688Z,83.54
2018-12-02T14:06:15.231Z,83.48
2018-12-02T14:08:43.039Z,83.54
2018-12-02T14:11:10.593Z,83.74
2018-12-02T14:13:38.128Z,83.97
2018-12-02T14:16:05.533Z,84.12
2018-12-02T14:18:32.950Z,83.87
2018-12-02T14:21:00.420Z,83.94
2018-12-02T14:23:27.845Z,83.91
2018-12-02T14:25:55.257Z,83.96
2018-12-02T14:28:24.082Z,84.03
2018-12-02T14:30:53.318Z,84.18
2018-12-02T14:33:20.766Z,83.94
2018-12-02T14:35:48.247Z,84.06
2018-12-02T14:38:16.826Z,84.11
2018-12-02T14:40:44.238Z,83.93
2018-12-02T14:43:11.653Z,83.95
2018-12-02T14:45:39.088Z,83.78
2018-12-02T14:48:06.505Z,83.74
2018-12-02T14:50:33.963Z,83.83
2018-12-02T14:53:01.437Z,83.40
2018-12-02T14:55:28.917Z,83.36
2018-12-02T14:57:56.800Z,83.10
2018-12-02T15:00:24.202Z,83.43
2018-12-02T15:02:51.603Z,83.93
2018-12-02T15:05:20.383Z,84.24
2018-12-02T15:07:47.140Z,84.53
2018-12-02T15:10:14.634Z,84.92
2018-12-02T15:12:42.047Z,84.82
2018-12-02T15:15:09.504Z,84.75
2018-12-02T15:17:36.944Z,84.66
2018-12-02T15:20:04.344Z,84.25
2018-12-02T15:22:31.805Z,83.94
2018-12-02T15:24:59.337Z,84.11
2018-12-02T15:27:26.910Z,84.21
2018-12-02T15:29:54.338Z,84.38
2018-12-02T15:32:21.762Z,84.19
2018-12-02T15:34:49.216Z,84.48
2018-12-02T15:37:16.636Z,84.71
2018-12-02T15:39:47.781Z,85.25
2018-12-02T15:42:15.215Z,85.27
2018-12-02T15:44:43.247Z,85.26
2018-12-02T15:47:10.834Z,85.34
2018-12-02T15:49:38.275Z,85.39
2018-12-02T15:52:05.688Z,85.57
2018-12-02T15:54:33.824Z,85.45
2018-12-02T15:57:01.279Z,85.30
2018-12-02T15:59:28.680Z,85.05
2018-12-02T16:01:57.193Z,85.18
2018-12-02T16:04:24.671Z,85.05
2018-12-02T16:06:52.173Z,84.92
2018-12-02T16:09:19.632Z,85.04
2018-12-02T16:11:47.045Z,85.02
2018-12-02T16:14:14.487Z,84.72
2018-12-02T16:16:41.929Z,84.91
2018-12-02T16:19:09.332Z,85.09
2018-12-02T16:21:36.805Z,84.90
2018-12-02T16:24:04.351Z,84.67
2018-12-02T16:26:31.798Z,84.66
2018-12-02T16:28:59.294Z,84.49
2018-12-02T16:31:26.804Z,84.54
2018-12-02T16:33:54.377Z,84.87
2018-12-02T16:36:22.041Z,84.76
2018-12-02T16:38:49.533Z,84.69
2018-12-02T16:41:17.130Z,84.61
2018-12-02T16:43:44.817Z,84.57
2018-12-02T16:46:13.159Z,84.82
2018-12-02T16:48:40.759Z,85.12
2018-12-02T16:51:08.173Z,85.12
2018-12-02T16:53:35.862Z,84.92
2018-12-02T16:56:03.319Z,84.62
2018-12-02T16:58:30.917Z,84.60
2018-12-02T17:00:58.360Z,84.69
2018-12-02T17:03:26.613Z,84.77
2018-12-02T17:05:54.076Z,84.83
2018-12-02T17:08:21.533Z,84.73
2018-12-02T17:10:50.392Z,84.43
2018-12-02T17:13:16.621Z,84.68
2018-12-02T17:15:44.517Z,84.78
2018-12-02T17:18:11.984Z,84.39
2018-12-02T17:20:39.788Z,84.65
2018-12-02T17:23:07.194Z,84.90
2018-12-02T17:25:34.639Z,85.28
2018-12-02T17:28:02.109Z,85.07
2018-12-02T17:30:29.550Z,85.18
2018-12-02T17:32:56.947Z,85.52
2018-12-02T17:35:24.517Z,85.38
2018-12-02T17:37:51.926Z,85.22
2018-12-02T17:40:19.339Z,84.77
2018-12-02T17:42:46.740Z,84.55
2018-12-02T17:45:14.179Z,84.58
2018-12-02T17:47:41.662Z,84.69
2018-12-02T17:50:09.422Z,84.78
2018-12-02T17:52:36.887Z,84.95
2018-12-02T17:55:04.418Z,85.09
2018-12-02T17:57:31.906Z,85.19
2018-12-02T18:00:00.150Z,85.19
2018-12-02T18:02:27.632Z,85.36
2018-12-02T18:04:55.055Z,85.47
2018-12-02T18:07:22.580Z,85.64
2018-12-02T18:09:50.146Z,85.72
2018-12-02T18:12:18.052Z,85.74
2018-12-02T18:14:45.505Z,85.73
2018-12-02T18:17:12.899Z,85.71
2018-12-02T18:19:40.429Z,85.82
2018-12-02T18:22:08.079Z,85.95
2018-12-02T18:24:36.831Z,85.88
2018-12-02T18:27:04.369Z,85.70
2018-12-02T18:29:31.885Z,85.90
2018-12-02T18:31:59.470Z,86.03
2018-12-02T18:34:26.936Z,85.81
2018-12-02T18:36:54.444Z,85.47
2018-12-02T18:39:21.870Z,85.82
2018-12-02T18:41:49.588Z,85.63
2018-12-02T18:44:17.060Z,85.29
2018-12-02T18:46:44.441Z,85.14
2018-12-02T18:49:11.975Z,85.14
2018-12-02T18:51:39.834Z,85.11
2018-12-02T18:54:07.327Z,85.09
2018-12-02T18:56:34.903Z,85.06
2018-12-02T18:59:02.641Z,84.83
2018-12-02T19:01:30.051Z,84.71
2018-12-02T19:03:57.947Z,85.05
2018-12-02T19:06:28.239Z,85.12
2018-12-02T19:08:53.012Z,85.20
2018-12-02T19:11:21.587Z,85.27
2018-12-02T19:13:48.045Z,84.87
2018-12-02T19:16:15.493Z,84.31
2018-12-02T19:18:43.464Z,84.07
2018-12-02T19:21:10.879Z,83.98
2018-12-02T19:23:38.877Z,84.08
2018-12-02T19:26:06.477Z,84.45
2018-12-02T19:28:33.951Z,84.68
2018-12-02T19:31:01.400Z,84.98
2018-12-02T19:33:29.819Z,85.14
2018-12-02T19:35:57.725Z,85.58
2018-12-02T19:38:25.134Z,85.63
2018-12-02T19:40:52.571Z,85.77
2018-12-02T19:43:20.976Z,85.80
2018-12-02T19:45:49.880Z,85.79
2018-12-02T19:48:17.351Z,85.78
2018-12-02T19:50:44.753Z,85.77
2018-12-02T19:53:12.231Z,86.18
2018-12-02T19:55:39.972Z,86.13
2018-12-02T19:58:07.759Z,86.13
2018-12-02T20:00:35.159Z,86.19
2018-12-02T20:03:02.634Z,86.18
2018-12-02T20:05:30.064Z,86.47
2018-12-02T20:07:57.513Z,86.33
2018-12-02T20:10:24.938Z,86.03
2018-12-02T20:12:52.607Z,86.17
2018-12-02T20:15:20.081Z,86.24
2018-12-02T20:17:47.494Z,86.14
2018-12-02T20:20:20.556Z,86.07
2018-12-02T20:22:48.085Z,86.02
2018-12-02T20:25:15.533Z,85.92
2018-12-02T20:27:43.181Z,85.78
2018-12-02T20:30:10.991Z,85.56
2018-12-02T20:32:38.425Z,85.35
2018-12-02T20:35:06.024Z,85.29
2018-12-02T20:37:33.577Z,85.55
2018-12-02T20:40:01.005Z,85.59
2018-12-02T20:42:28.541Z,85.65
2018-12-02T20:44:55.953Z,85.71
2018-12-02T20:47:24.265Z,85.76
2018-12-02T20:49:51.700Z,85.79
2018-12-02T20:52:19.505Z,85.67
2018-12-02T20:54:47.111Z,85.52
2018-12-02T20:57:14.518Z,85.54
2018-12-02T20:59:41.974Z,85.53
2018-12-02T21:02:11.134Z,85.28
2018-12-02T21:04:38.671Z,85.14
2018-12-02T21:07:06.093Z,85.03
2018-12-02T21:09:33.885Z,84.67
2018-12-02T21:12:01.351Z,84.47
2018-12-02T21:14:28.750Z,84.35
2018-12-02T21:16:56.375Z,84.31
2018-12-02T21:19:23.774Z,84.27
2018-12-02T21:21:51.722Z,84.24
2018-12-02T21:24:19.138Z,83.97
2018-12-02T21:26:47.003Z,83.73
2018-12-02T21:29:14.421Z,83.82
2018-12-02T21:31:41.875Z,83.73
2018-12-02T21:34:10.144Z,83.75
2018-12-02T21:36:37.811Z,83.84
2018-12-02T21:39:05.469Z,84.10
2018-12-02T21:41:33.123Z,84.14
2018-12-02T21:44:00.643Z,84.23
2018-12-02T21:46:28.135Z,84.18
2018-12-02T21:48:55.555Z,84.54
2018-12-02T21:51:22.991Z,84.53
2018-12-02T21:53:50.399Z,84.31
2018-12-02T21:56:17.818Z,84.30
2018-12-02T21:58:45.223Z,84.15
2018-12-02T22:01:12.773Z,84.10
2018-12-02T22:03:40.171Z,84.30
2018-12-02T22:06:07.828Z,84.83
2018-12-02T22:08:35.231Z,84.64
2018-12-02T22:11:02.633Z,84.63
2018-12-02T22:13:30.110Z,84.42
2018-12-02T22:15:57.502Z,84.19
2018-12-02T22:18:24.956Z,84.49
2018-12-02T22:20:52.389Z,84.12
2018-12-02T22:23:19.883Z,83.87
2018-12-02T22:25:47.839Z,83.71
2018-12-02T22:28:15.275Z,83.69
2018-12-02T22:30:43.372Z,83.67
2018-12-02T22:33:10.759Z,83.26
2018-12-02T22:35:38.201Z,82.96
2018-12-02T22:38:05.628Z,83.03
2018-12-02T22:40:33.025Z,82.88
2018-12-02T22:43:00.699Z,82.78
2018-12-02T22:45:28.211Z,82.82
2018-12-02T22:47:55.641Z,82.83
2018-12-02T22:50:23.092Z,82.83
2018-12-02T22:52:50.494Z,82.83
2018-12-02T22:55:17.941Z,82.89
2018-12-02T22:57:45.402Z,82.92
2018-12-02T23:00:12.788Z,82.89
2018-12-02T23:02:40.231Z,82.82
2018-12-02T23:05:07.646Z,82.77
2018-12-02T23:07:35.083Z,82.58
2018-12-02T23:10:02.506Z,82.64
2018-12-02T23:12:29.903Z,82.69
2018-12-02T23:14:57.315Z,82.54
2018-12-02T23:17:24.731Z,82.42
2018-12-02T23:19:52.128Z,82.57
2018-12-02T23:22:19.543Z,82.36
2018-12-02T23:24:46.996Z,82.53
2018-12-02T23:27:14.403Z,82.50
2018-12-02T23:29:41.833Z,82.48
2018-12-02T23:32:09.239Z,82.38
2018-12-02T23:34:37.396Z,81.96
2018-12-02T23:37:04.840Z,81.68
2018-12-02T23:39:32.242Z,81.37
2018-12-02T23:41:59.641Z,81.10
2018-12-02T23:44:27.036Z,80.87
2018-12-02T23:46:54.440Z,80.83
2018-12-02T23:49:21.867Z,80.76
2018-12-02T23:51:49.268Z,80.89
2018-12-02T23:54:16.801Z,80.81
2018-12-02T23:56:44.375Z,80.59
2018-12-02T23:59:11.795Z,80.36
